createdAt,value
2019-02-08T00:01:06.103Z,28.00
2019-02-08T00:07:10.492Z,28.77
2019-02-08T00:09:41.883Z,30.23
2019-02-08T00:12:13.138Z,28.47
2019-02-08T00:14:44.989Z,31.00
2019-02-08T00:17:16.478Z,32.63
2019-02-08T00:19:48.267Z,33.92
2019-02-08T00:22:19.976Z,37.70
2019-02-08T00:24:51.526Z,33.02
2019-02-08T00:27:23.990Z,33.00
2019-02-08T00:29:55.786Z,28.55
2019-02-08T00:32:27.591Z,32.95
2019-02-08T00:34:59.644Z,31.17
2019-02-08T00:37:31.294Z,28.40
2019-02-08T00:40:02.978Z,27.00
2019-02-08T00:42:34.877Z,26.87
2019-02-08T00:45:07.792Z,26.17
2019-02-08T00:47:39.759Z,26.52
2019-02-08T00:50:14.817Z,26.75
2019-02-08T00:52:47.654Z,25.55
2019-02-08T00:55:20.107Z,23.92
2019-02-08T00:57:51.854Z,25.55
2019-02-08T01:00:24.426Z,22.98
2019-02-08T01:02:56.796Z,22.35
2019-02-08T01:05:28.818Z,24.45
2019-02-08T01:08:01.481Z,21.70
2019-02-08T01:10:33.942Z,20.15
2019-02-08T01:13:05.637Z,22.95
2019-02-08T01:15:37.142Z,22.32
2019-02-08T01:18:08.911Z,19.15
2019-02-08T01:20:40.339Z,19.65
2019-02-08T01:23:11.761Z,19.87
2019-02-08T01:25:43.695Z,20.12
2019-02-08T01:28:15.363Z,18.20
2019-02-08T01:30:47.295Z,20.52
2019-02-08T01:33:18.729Z,19.70
2019-02-08T01:35:50.454Z,18.37
2019-02-08T01:38:21.967Z,17.52
2019-02-08T01:40:53.693Z,16.30
2019-02-08T01:43:25.173Z,19.50
2019-02-08T01:45:56.868Z,20.55
2019-02-08T01:48:28.292Z,19.40
2019-02-08T01:51:00.061Z,18.50
2019-02-08T01:53:31.448Z,21.85
2019-02-08T01:56:02.993Z,16.93
2019-02-08T01:58:34.459Z,19.00
2019-02-08T02:01:06.547Z,17.48
2019-02-08T02:03:38.030Z,16.00
2019-02-08T02:06:09.554Z,15.90
2019-02-08T02:08:41.073Z,18.50
2019-02-08T02:11:12.483Z,16.05
2019-02-08T02:13:44.139Z,15.40
2019-02-08T02:16:15.458Z,19.02
2019-02-08T02:18:46.773Z,14.40
2019-02-08T02:21:18.331Z,16.25
2019-02-08T02:23:56.037Z,17.50
2019-02-08T02:26:23.397Z,17.75
2019-02-08T02:28:55.092Z,13.45
2019-02-08T02:31:26.485Z,15.25
2019-02-08T02:33:57.927Z,12.78
2019-02-08T02:36:29.628Z,12.75
2019-02-08T02:39:01.210Z,13.10
2019-02-08T02:41:34.174Z,12.37
2019-02-08T02:44:05.791Z,12.50
2019-02-08T02:46:37.284Z,11.85
2019-02-08T02:49:08.736Z,12.90
2019-02-08T02:51:40.253Z,13.35
2019-02-08T02:54:11.879Z,14.28
2019-02-08T02:56:43.431Z,11.93
2019-02-08T02:59:14.204Z,15.18
2019-02-08T03:01:45.877Z,16.23
2019-02-08T03:04:17.479Z,17.92
2019-02-08T03:06:49.058Z,14.18
2019-02-08T03:09:20.888Z,12.78
2019-02-08T03:11:52.486Z,13.53
2019-02-08T03:14:24.038Z,11.70
2019-02-08T03:16:56.806Z,15.13
2019-02-08T03:19:28.430Z,13.83
2019-02-08T03:22:00.049Z,14.33
2019-02-08T03:24:31.642Z,14.15
2019-02-08T03:27:03.122Z,14.87
2019-02-08T03:29:34.465Z,13.15
2019-02-08T03:32:06.217Z,12.73
2019-02-08T03:34:37.796Z,12.88
2019-02-08T03:37:09.522Z,13.43
2019-02-08T03:39:41.286Z,13.22
2019-02-08T03:42:12.885Z,13.03
2019-02-08T03:44:44.809Z,13.30
2019-02-08T03:47:16.137Z,14.07
2019-02-08T03:49:47.558Z,17.23
2019-02-08T03:52:19.165Z,18.35
2019-02-08T03:54:50.916Z,15.03
2019-02-08T03:57:22.295Z,15.05
2019-02-08T03:59:53.852Z,13.13
2019-02-08T04:02:25.611Z,15.05
2019-02-08T04:04:57.425Z,14.93
2019-02-08T04:07:28.921Z,15.75
2019-02-08T04:10:00.562Z,15.43
2019-02-08T04:12:32.314Z,14.07
2019-02-08T04:15:04.888Z,17.57
2019-02-08T04:17:36.574Z,14.80
2019-02-08T04:20:09.069Z,16.42
2019-02-08T04:22:40.650Z,13.70
2019-02-08T04:25:12.752Z,16.27
2019-02-08T04:27:44.320Z,15.78
2019-02-08T04:30:19.265Z,14.50
2019-02-08T04:32:50.867Z,13.65
2019-02-08T04:35:22.511Z,23.55
2019-02-08T04:37:54.107Z,18.85
2019-02-08T04:40:25.557Z,16.95
2019-02-08T04:42:57.297Z,17.90
2019-02-08T04:45:28.919Z,16.15
2019-02-08T04:48:00.280Z,17.55
2019-02-08T04:50:31.757Z,16.05
2019-02-08T04:53:03.410Z,18.57
2019-02-08T04:55:34.817Z,17.55
2019-02-08T04:58:06.302Z,21.80
2019-02-08T05:00:38.437Z,24.77
2019-02-08T05:03:09.857Z,19.35
2019-02-08T05:05:41.185Z,18.82
2019-02-08T05:08:12.673Z,17.73
2019-02-08T05:10:44.022Z,17.98
2019-02-08T05:13:15.451Z,17.73
2019-02-08T05:15:46.802Z,18.07
2019-02-08T05:18:18.198Z,17.75
2019-02-08T05:20:49.640Z,18.40
2019-02-08T05:23:20.909Z,21.30
2019-02-08T05:25:52.488Z,19.70
2019-02-08T05:28:24.013Z,18.30
2019-02-08T05:30:55.215Z,16.67
2019-02-08T05:33:26.586Z,20.20
2019-02-08T05:35:58.132Z,20.88
2019-02-08T05:38:29.612Z,20.08
2019-02-08T05:41:01.172Z,20.85
2019-02-08T05:43:32.775Z,19.35
2019-02-08T05:46:06.674Z,18.95
2019-02-08T05:48:38.150Z,22.55
2019-02-08T05:51:09.652Z,22.50
2019-02-08T05:53:41.325Z,25.10
2019-02-08T05:56:12.533Z,21.90
2019-02-08T05:58:44.161Z,35.28
2019-02-08T06:01:15.899Z,46.70
2019-02-08T06:03:47.340Z,29.32
2019-02-08T06:06:18.557Z,30.50
2019-02-08T06:08:49.909Z,25.57
2019-02-08T06:11:21.342Z,25.75
2019-02-08T06:13:53.094Z,18.73
2019-02-08T06:16:24.478Z,20.90
2019-02-08T06:18:56.153Z,23.22
2019-02-08T06:21:27.507Z,21.35
2019-02-08T06:23:59.027Z,20.60
2019-02-08T06:26:30.554Z,21.10
2019-02-08T06:29:02.297Z,24.52
2019-02-08T06:31:33.876Z,21.90
2019-02-08T06:34:05.714Z,23.40
2019-02-08T06:36:37.208Z,20.70
2019-02-08T06:39:11.402Z,21.27
2019-02-08T06:41:42.895Z,21.97
2019-02-08T06:44:14.739Z,23.25
2019-02-08T06:46:46.312Z,20.90
2019-02-08T06:49:18.006Z,21.80
2019-02-08T06:51:49.301Z,20.45
2019-02-08T06:54:21.041Z,23.20
2019-02-08T06:57:05.045Z,22.25
2019-02-08T06:59:43.259Z,21.87
2019-02-08T07:02:26.160Z,20.48
2019-02-08T07:05:25.736Z,22.80
2019-02-08T07:08:13.482Z,25.88
2019-02-08T07:10:52.954Z,26.15
2019-02-08T07:13:47.543Z,27.77
2019-02-08T07:16:47.067Z,25.55
2019-02-08T07:19:32.173Z,25.27
2019-02-08T07:22:11.538Z,23.35
2019-02-08T07:25:02.287Z,22.80
2019-02-08T07:27:40.460Z,24.72
2019-02-08T07:30:36.379Z,24.52
2019-02-08T07:33:35.806Z,23.12
2019-02-08T07:36:26.079Z,23.15
2019-02-08T07:39:16.554Z,19.30
2019-02-08T07:41:57.696Z,18.70
2019-02-08T07:44:40.894Z,21.93
2019-02-08T07:47:34.462Z,19.48
2019-02-08T07:50:28.747Z,20.75
2019-02-08T07:53:25.150Z,25.52
2019-02-08T07:56:18.456Z,24.40
2019-02-08T07:59:00.545Z,27.95
2019-02-08T08:01:57.095Z,25.88
2019-02-08T08:04:52.193Z,20.65
2019-02-08T08:07:48.936Z,23.70
2019-02-08T08:10:39.535Z,27.60
2019-02-08T08:13:24.912Z,24.67
2019-02-08T08:16:21.249Z,26.48
2019-02-08T08:19:16.088Z,31.50
2019-02-08T08:21:56.441Z,35.13
2019-02-08T08:24:59.490Z,32.30
2019-02-08T08:27:50.524Z,31.85
2019-02-08T08:30:45.671Z,28.83
2019-02-08T08:33:29.167Z,33.38
2019-02-08T08:36:33.606Z,30.62
2019-02-08T08:39:44.303Z,31.62
2019-02-08T08:42:58.726Z,30.15
2019-02-08T08:46:03.282Z,27.58
2019-02-08T08:49:08.844Z,27.50
2019-02-08T08:52:19.007Z,33.42
2019-02-08T08:55:41.787Z,30.72
2019-02-08T08:58:47.025Z,31.65
2019-02-08T09:01:58.129Z,34.05
2019-02-08T09:05:05.828Z,33.58
2019-02-08T09:08:13.820Z,29.42
2019-02-08T09:11:24.125Z,30.55
2019-02-08T09:14:32.288Z,31.42
2019-02-08T09:17:32.259Z,28.52
2019-02-08T09:20:46.364Z,28.73
2019-02-08T09:23:56.473Z,27.77
2019-02-08T09:27:11.389Z,28.52
2019-02-08T09:30:17.750Z,28.83
2019-02-08T09:33:28.964Z,30.65
2019-02-08T09:36:47.407Z,29.65
2019-02-08T09:39:56.721Z,36.98
2019-02-08T09:43:23.777Z,24.72
2019-02-08T09:46:38.904Z,28.70
2019-02-08T09:49:40.728Z,28.67
2019-02-08T09:52:47.391Z,30.35
2019-02-08T09:55:57.895Z,28.00
2019-02-08T09:59:26.314Z,30.55
2019-02-08T10:02:33.651Z,26.42
2019-02-08T10:05:40.911Z,29.20
2019-02-08T10:09:00.552Z,32.50
2019-02-08T10:12:32.335Z,30.00
2019-02-08T10:15:34.758Z,28.77
2019-02-08T10:18:58.629Z,33.80
2019-02-08T10:21:57.348Z,36.65
2019-02-08T10:25:18.531Z,38.05
2019-02-08T10:28:51.428Z,33.90
2019-02-08T10:31:53.603Z,32.40
2019-02-08T10:35:11.431Z,38.53
2019-02-08T10:38:16.288Z,32.80
2019-02-08T10:41:30.722Z,32.67
2019-02-08T10:44:59.194Z,37.80
2019-02-08T10:48:32.170Z,39.08
2019-02-08T10:51:55.576Z,34.80
2019-02-08T10:55:01.328Z,38.10
2019-02-08T10:58:13.932Z,44.25
2019-02-08T11:01:41.527Z,37.65
2019-02-08T11:05:03.205Z,35.83
2019-02-08T11:08:21.180Z,41.77
2019-02-08T11:11:41.884Z,39.20
2019-02-08T11:14:48.699Z,37.00
2019-02-08T11:18:00.910Z,33.65
2019-02-08T11:20:32.688Z,35.75
2019-02-08T11:23:04.196Z,36.40
2019-02-08T11:25:35.902Z,37.28
2019-02-08T11:28:07.695Z,36.65
2019-02-08T11:30:39.605Z,35.92
2019-02-08T11:33:11.282Z,31.65
2019-02-08T11:35:42.753Z,35.52
2019-02-08T11:38:14.273Z,35.40
2019-02-08T11:40:45.870Z,36.53
2019-02-08T11:43:17.749Z,37.95
2019-02-08T11:45:49.246Z,41.68
2019-02-08T11:51:03.150Z,31.27
2019-02-08T11:53:39.000Z,32.75
2019-02-08T11:56:10.923Z,34.00
2019-02-08T11:58:42.607Z,34.33
2019-02-08T12:01:13.969Z,35.17
2019-02-08T12:03:45.803Z,26.93
2019-02-08T12:06:17.288Z,28.15
2019-02-08T12:08:48.732Z,28.95
2019-02-08T12:11:20.460Z,28.62
2019-02-08T12:13:51.903Z,33.75
2019-02-08T12:16:23.412Z,28.92
2019-02-08T12:18:56.094Z,26.90
2019-02-08T12:21:27.821Z,31.85
2019-02-08T12:23:59.503Z,32.20
2019-02-08T12:26:37.657Z,33.30
2019-02-08T12:29:05.104Z,30.20
2019-02-08T12:31:36.994Z,32.48
2019-02-08T12:34:09.273Z,29.42
2019-02-08T12:36:41.083Z,26.17
2019-02-08T12:39:13.255Z,25.92
2019-02-08T12:41:44.866Z,27.93
2019-02-08T12:44:17.394Z,29.40
2019-02-08T12:46:49.228Z,28.62
2019-02-08T12:49:20.986Z,28.15
2019-02-08T12:51:52.654Z,28.17
2019-02-08T12:54:24.495Z,31.00
2019-02-08T12:56:56.373Z,28.05
2019-02-08T12:59:28.131Z,38.42
2019-02-08T13:01:59.801Z,28.40
2019-02-08T13:04:32.731Z,28.27
2019-02-08T13:07:04.363Z,26.15
2019-02-08T13:09:36.031Z,26.48
2019-02-08T13:12:07.710Z,29.25
2019-02-08T13:14:40.127Z,28.32
2019-02-08T13:17:11.509Z,25.48
2019-02-08T13:19:42.993Z,24.70
2019-02-08T13:22:14.667Z,25.12
2019-02-08T13:24:46.579Z,25.08
2019-02-08T13:27:18.346Z,26.35
2019-02-08T13:29:50.133Z,27.50
2019-02-08T13:32:22.871Z,30.70
2019-02-08T13:34:54.494Z,27.85
2019-02-08T13:37:25.803Z,29.98
2019-02-08T13:39:57.214Z,29.60
2019-02-08T13:42:29.033Z,25.05
2019-02-08T13:45:00.639Z,30.85
2019-02-08T13:47:32.475Z,28.83
2019-02-08T13:50:05.215Z,30.02
2019-02-08T13:52:36.727Z,30.95
2019-02-08T13:55:08.868Z,29.32
2019-02-08T13:57:40.559Z,28.85
2019-02-08T14:00:16.508Z,32.10
2019-02-08T14:02:48.623Z,31.48
2019-02-08T14:05:20.329Z,25.00
2019-02-08T14:07:51.998Z,25.85
2019-02-08T14:10:23.686Z,29.27
2019-02-08T14:12:55.533Z,26.00
2019-02-08T14:15:27.578Z,26.00
2019-02-08T14:17:59.293Z,22.87
2019-02-08T14:20:31.135Z,21.40
2019-02-08T14:23:02.805Z,21.02
2019-02-08T14:25:34.312Z,21.10
2019-02-08T14:28:06.012Z,23.90
2019-02-08T14:30:39.658Z,27.17
2019-02-08T14:33:11.266Z,27.15
2019-02-08T14:35:42.858Z,26.57
2019-02-08T14:38:18.827Z,26.77
2019-02-08T14:40:50.509Z,23.77
2019-02-08T14:43:22.246Z,19.52
2019-02-08T14:45:53.767Z,17.82
2019-02-08T14:48:25.352Z,17.62
2019-02-08T14:50:57.022Z,16.95
2019-02-08T14:53:28.453Z,16.32
2019-02-08T14:56:00.034Z,13.40
2019-02-08T14:58:31.502Z,16.57
2019-02-08T15:01:02.927Z,13.72
2019-02-08T15:03:34.364Z,18.20
2019-02-08T15:06:05.958Z,12.78
2019-02-08T15:08:37.234Z,14.13
2019-02-08T15:11:09.000Z,15.18
2019-02-08T15:13:40.325Z,13.75
2019-02-08T15:16:11.870Z,15.20
2019-02-08T15:18:43.187Z,30.77
2019-02-08T15:21:14.431Z,15.58
2019-02-08T15:23:46.161Z,18.70
2019-02-08T15:26:17.830Z,37.13
2019-02-08T15:28:49.412Z,13.98
2019-02-08T15:31:21.179Z,12.65
2019-02-08T15:33:52.762Z,15.08
2019-02-08T15:36:24.452Z,18.70
2019-02-08T15:38:55.817Z,15.43
2019-02-08T15:41:27.436Z,19.57
2019-02-08T15:43:59.106Z,14.93
2019-02-08T15:46:30.601Z,18.10
2019-02-08T15:49:02.273Z,17.00
2019-02-08T15:51:33.924Z,19.75
2019-02-08T15:54:05.281Z,20.30
2019-02-08T15:56:37.904Z,22.15
2019-02-08T15:59:09.656Z,19.75
2019-02-08T16:01:41.466Z,21.85
2019-02-08T16:04:12.977Z,21.75
2019-02-08T16:06:44.640Z,22.65
2019-02-08T16:09:15.956Z,19.48
2019-02-08T16:11:47.468Z,22.77
2019-02-08T16:14:19.104Z,17.50
2019-02-08T16:16:50.690Z,18.60
2019-02-08T16:19:22.233Z,19.50
2019-02-08T16:21:53.988Z,16.65
2019-02-08T16:24:25.593Z,20.75
2019-02-08T16:26:57.324Z,18.82
2019-02-08T16:29:28.999Z,17.05
2019-02-08T16:32:00.775Z,30.62
2019-02-08T16:34:32.817Z,17.80
2019-02-08T16:37:04.652Z,22.02
2019-02-08T16:39:36.132Z,23.30
2019-02-08T16:42:07.855Z,23.57
2019-02-08T16:44:39.863Z,19.50
2019-02-08T16:47:11.653Z,21.15
2019-02-08T16:49:43.317Z,23.27
2019-02-08T16:52:14.709Z,22.48
2019-02-08T16:54:47.189Z,22.75
2019-02-08T16:57:19.057Z,17.12
2019-02-08T16:59:50.862Z,18.52
2019-02-08T17:02:22.500Z,19.00
2019-02-08T17:04:54.347Z,18.65
2019-02-08T17:07:26.004Z,20.60
2019-02-08T17:09:57.573Z,21.33
2019-02-08T17:12:29.270Z,25.77
2019-02-08T17:15:00.679Z,27.05
2019-02-08T17:17:32.437Z,22.50
2019-02-08T17:20:05.550Z,21.42
2019-02-08T17:22:37.050Z,24.92
2019-02-08T17:25:08.619Z,21.68
2019-02-08T17:27:40.088Z,27.10
2019-02-08T17:30:14.216Z,23.18
2019-02-08T17:32:46.048Z,24.82
2019-02-08T17:35:18.452Z,28.30
2019-02-08T17:37:50.216Z,24.27
2019-02-08T17:40:24.082Z,24.02
2019-02-08T17:42:55.851Z,24.77
2019-02-08T17:45:27.507Z,26.45
2019-02-08T17:48:00.771Z,20.02
2019-02-08T17:50:32.387Z,20.75
2019-02-08T17:53:04.409Z,19.92
2019-02-08T17:55:36.205Z,23.62
2019-02-08T17:58:08.075Z,20.37
2019-02-08T18:01:00.443Z,23.90
2019-02-08T18:03:32.212Z,23.27
2019-02-08T18:06:03.636Z,23.40
2019-02-08T18:08:35.140Z,22.35
2019-02-08T18:11:06.648Z,23.73
2019-02-08T18:13:38.019Z,22.35
2019-02-08T18:16:09.463Z,24.45
2019-02-08T18:18:41.014Z,28.32
2019-02-08T18:21:13.139Z,25.60
2019-02-08T18:23:44.679Z,23.42
2019-02-08T18:26:15.917Z,23.10
2019-02-08T18:28:47.313Z,24.40
2019-02-08T18:31:18.567Z,26.25
2019-02-08T18:33:49.858Z,24.80
2019-02-08T18:36:21.210Z,25.75
2019-02-08T18:38:52.541Z,26.62
2019-02-08T18:41:24.111Z,24.45
2019-02-08T18:43:55.666Z,25.80
2019-02-08T18:46:27.351Z,21.90
2019-02-08T18:48:59.047Z,23.10
2019-02-08T18:51:30.371Z,23.75
2019-02-08T18:54:01.744Z,23.85
2019-02-08T18:56:33.127Z,22.70
2019-02-08T18:59:04.509Z,27.52
2019-02-08T19:01:35.856Z,23.90
2019-02-08T19:04:07.391Z,27.17
2019-02-08T19:06:39.079Z,25.37
2019-02-08T19:09:10.814Z,22.45
2019-02-08T19:11:43.038Z,25.75
2019-02-08T19:14:14.875Z,23.80
2019-02-08T19:16:46.679Z,24.92
2019-02-08T19:19:19.734Z,25.37
2019-02-08T19:21:51.298Z,26.15
2019-02-08T19:24:23.014Z,29.98
2019-02-08T19:26:54.395Z,32.83
2019-02-08T19:29:26.021Z,23.40
2019-02-08T19:31:57.477Z,30.23
2019-02-08T19:34:29.060Z,27.17
2019-02-08T19:37:00.788Z,29.90
2019-02-08T19:39:32.754Z,30.27
2019-02-08T19:42:04.531Z,28.55
2019-02-08T19:44:36.200Z,28.80
2019-02-08T19:47:07.678Z,32.38
2019-02-08T19:49:39.064Z,29.55
2019-02-08T19:52:10.306Z,28.77
2019-02-08T19:54:41.645Z,29.60
2019-02-08T19:57:13.381Z,32.83
2019-02-08T19:59:44.710Z,32.63
2019-02-08T20:02:16.465Z,37.70
2019-02-08T20:04:48.118Z,31.57
2019-02-08T20:07:19.488Z,38.75
2019-02-08T20:09:51.048Z,35.88
2019-02-08T20:12:22.449Z,37.25
2019-02-08T20:14:54.842Z,41.45
2019-02-08T20:17:26.601Z,47.58
2019-02-08T20:19:58.143Z,44.42
2019-02-08T20:22:29.656Z,44.00
2019-02-08T20:25:00.886Z,48.40
2019-02-08T20:27:32.650Z,36.68
2019-02-08T20:30:05.399Z,37.53
2019-02-08T20:32:37.138Z,33.48
2019-02-08T20:35:10.834Z,33.60
2019-02-08T20:37:42.440Z,36.10
2019-02-08T20:40:16.355Z,40.23
2019-02-08T20:42:48.189Z,42.85
2019-02-08T20:45:22.134Z,38.88
2019-02-08T20:47:53.975Z,39.88
2019-02-08T20:50:26.289Z,34.40
2019-02-08T20:52:58.913Z,38.33
2019-02-08T20:55:31.291Z,34.63
2019-02-08T20:58:03.495Z,41.05
2019-02-08T21:00:39.268Z,35.90
2019-02-08T21:03:15.312Z,28.23
2019-02-08T21:05:48.263Z,31.20
2019-02-08T21:08:21.307Z,34.08
2019-02-08T21:10:52.653Z,27.13
2019-02-08T21:13:24.033Z,25.68
2019-02-08T21:15:55.657Z,28.02
2019-02-08T21:18:27.280Z,26.07
2019-02-08T21:20:58.894Z,27.95
2019-02-08T21:23:30.388Z,27.90
2019-02-08T21:26:02.029Z,26.42
2019-02-08T21:28:34.056Z,27.98
2019-02-08T21:31:05.673Z,29.48
2019-02-08T21:33:37.152Z,26.52
2019-02-08T21:36:08.587Z,25.30
2019-02-08T21:38:40.119Z,21.93
2019-02-08T21:41:11.456Z,22.07
2019-02-08T21:43:43.000Z,31.52
2019-02-08T21:46:14.997Z,32.15
2019-02-08T21:48:46.454Z,34.27
2019-02-08T21:51:17.766Z,28.47
2019-02-08T21:53:49.334Z,29.98
2019-02-08T21:56:20.989Z,36.63
2019-02-08T21:58:52.652Z,33.78
2019-02-08T22:01:24.580Z,32.95
2019-02-08T22:03:56.125Z,34.18
2019-02-08T22:06:27.644Z,35.50
2019-02-08T22:08:59.342Z,31.55
2019-02-08T22:11:32.432Z,34.23
2019-02-08T22:14:04.140Z,32.17
2019-02-08T22:16:35.772Z,33.88
2019-02-08T22:19:07.034Z,37.75
2019-02-08T22:21:38.742Z,31.48
2019-02-08T22:24:10.232Z,33.78
2019-02-08T22:26:42.064Z,34.63
2019-02-08T22:29:14.338Z,64.90
2019-02-08T22:31:46.048Z,34.75
2019-02-08T22:34:17.336Z,28.55
2019-02-08T22:36:48.748Z,26.55
2019-02-08T22:39:20.184Z,23.80
2019-02-08T22:41:51.717Z,25.00
2019-02-08T22:44:23.332Z,27.45
2019-02-08T22:46:54.925Z,26.37
2019-02-08T22:49:26.242Z,25.00
2019-02-08T22:51:57.704Z,25.05
2019-02-08T22:54:29.305Z,28.70
2019-02-08T22:57:00.526Z,28.57
2019-02-08T22:59:32.740Z,23.40
2019-02-08T23:02:06.031Z,38.73
2019-02-08T23:04:37.445Z,17.52
2019-02-08T23:07:09.359Z,19.98
2019-02-08T23:09:40.673Z,19.05
2019-02-08T23:12:12.448Z,20.40
2019-02-08T23:14:44.195Z,16.90
2019-02-08T23:17:15.662Z,17.73
2019-02-08T23:19:47.092Z,12.80
2019-02-08T23:22:18.725Z,14.90
2019-02-08T23:24:50.347Z,11.25
2019-02-08T23:27:21.632Z,12.25
2019-02-08T23:29:53.277Z,11.12
2019-02-08T23:32:24.934Z,12.45
2019-02-08T23:34:56.695Z,12.05
2019-02-08T23:37:28.328Z,14.35
2019-02-08T23:39:59.956Z,15.75
2019-02-08T23:42:31.266Z,15.05
2019-02-08T23:45:02.858Z,15.83
2019-02-08T23:47:34.372Z,14.43
2019-02-08T23:50:06.945Z,17.20
2019-02-08T23:52:38.544Z,21.60
2019-02-08T23:55:10.310Z,23.77
2019-02-08T23:57:41.906Z,18.07
